Time;durP1;ratioP1;P1;durP2;ratioP2;P2;SDS_P1;SDS_P2;PMS_P1;PMS_P2;Temp;Humidity;BMP_temperature;BMP_pressure;BME280_temperature;BME280_humidity;BME280_pressure;Samples;Min_cycle;Max_cycle;Signal;HPM_P1;HPM_P2
2022/11/07 00:00:49;;;;;;;7.85;1.00;;;;;;;18.65;100.00;100802.28;2095918;28;20105;-74
2022/11/07 00:02:11;;;;;;;10.50;1.23;;;;;;;18.64;100.00;100801.41;2085609;28;20566;-74
2022/11/07 00:03:34;;;;;;;4.95;1.20;;;;;;;18.62;100.00;100799.69;2074507;28;20151;-73
2022/11/07 00:04:56;;;;;;;6.10;1.15;;;;;;;18.61;100.00;100800.59;2088894;28;20879;-73
2022/11/07 00:06:17;;;;;;;9.27;1.40;;;;;;;18.59;100.00;100787.25;2094007;28;20056;-73
2022/11/07 00:07:39;;;;;;;4.47;1.20;;;;;;;18.56;100.00;100781.97;2101809;28;20048;-73
2022/11/07 00:09:04;;;;;;;7.47;1.20;;;;;;;18.58;100.00;100779.22;2094958;28;20571;-74
2022/11/07 00:10:26;;;;;;;9.85;1.90;;;;;;;18.56;100.00;100771.28;2094109;28;20052;-73
2022/11/07 00:11:48;;;;;;;7.63;1.58;;;;;;;18.53;100.00;100765.03;2095148;28;20143;-74
2022/11/07 00:13:10;;;;;;;7.25;1.15;;;;;;;18.51;100.00;100756.19;2095861;28;20048;-74
2022/11/07 00:14:33;;;;;;;7.05;1.30;;;;;;;18.47;100.00;100744.63;2093657;28;20087;-74
2022/11/07 00:15:58;;;;;;;5.70;1.38;;;;;;;18.43;100.00;100744.72;2101734;28;20092;-74
2022/11/07 00:17:19;;;;;;;6.47;1.45;;;;;;;18.38;100.00;100739.44;2095590;28;20056;-73
2022/11/07 00:18:41;;;;;;;6.10;1.17;;;;;;;18.33;100.00;100739.53;2082264;28;20065;-74
2022/11/07 00:20:06;;;;;;;14.45;1.60;;;;;;;18.30;100.00;100746.72;2093439;28;20048;-74
2022/11/07 00:21:27;;;;;;;9.90;1.75;;;;;;;18.24;100.00;100737.03;2088131;28;20075;-73
2022/11/07 00:22:49;;;;;;;10.18;2.40;;;;;;;18.20;100.00;100737.97;2099723;28;20044;-74
2022/11/07 00:24:13;;;;;;;6.90;1.40;;;;;;;18.16;100.00;100730.91;2096250;28;20453;-74
2022/11/07 00:25:36;;;;;;;6.00;0.98;;;;;;;18.11;100.00;100735.44;2087759;28;20045;-74
2022/11/07 00:26:58;;;;;;;8.82;1.15;;;;;;;18.07;100.00;100732.81;2090413;28;20446;-74
2022/11/07 00:28:20;;;;;;;7.35;1.05;;;;;;;18.03;100.00;100739.13;2079518;28;20123;-74
2022/11/07 00:29:42;;;;;;;9.32;1.83;;;;;;;17.98;100.00;100741.00;2077222;28;20057;-74
2022/11/07 00:31:04;;;;;;;6.18;1.73;;;;;;;17.92;100.00;100740.16;2090418;28;20048;-74
2022/11/07 00:32:26;;;;;;;;;;;;;;;17.84;100.00;100736.75;2099882;28;20117;-74
2022/11/07 00:33:48;;;;;;;10.90;1.70;;;;;;;17.80;100.00;100737.69;2101622;28;19927;-74
2022/11/07 00:35:10;;;;;;;3.65;0.85;;;;;;;17.75;100.00;100744.00;2092942;28;20048;-74
2022/11/07 00:36:31;;;;;;;9.43;1.88;;;;;;;17.69;100.00;100738.75;2092514;28;20060;-74
2022/11/07 00:37:54;;;;;;;5.72;1.45;;;;;;;17.64;100.00;100737.94;2093819;28;20041;-74
2022/11/07 00:39:19;;;;;;;10.63;1.70;;;;;;;17.60;100.00;100742.38;2093492;28;20060;-74
2022/11/07 00:40:40;;;;;;;7.95;1.80;;;;;;;17.54;100.00;100743.34;2101799;28;20048;-73
2022/11/07 00:42:02;;;;;;;10.25;1.95;;;;;;;17.50;100.00;100741.63;2095600;28;20458;-74
2022/11/07 00:43:24;;;;;;;7.88;1.70;;;;;;;17.45;100.00;100746.16;2085179;28;20045;-74
2022/11/07 00:44:46;;;;;;;13.02;4.68;;;;;;;17.41;100.00;100747.06;2091278;28;20059;-74
2022/11/07 00:46:09;;;;;;;7.38;2.03;;;;;;;17.39;100.00;100743.53;2093967;28;20097;-74
2022/11/07 00:47:32;;;;;;;11.32;2.30;;;;;;;17.37;100.00;100749.81;2101574;28;20147;-74
2022/11/07 00:48:55;;;;;;;8.65;1.15;;;;;;;17.35;100.00;100746.25;2085147;28;20098;-74
2022/11/07 00:50:17;;;;;;;9.30;1.40;;;;;;;17.34;100.00;100748.06;2099638;28;20108;-74
2022/11/07 00:51:39;;;;;;;8.20;1.42;;;;;;;17.32;100.00;100751.66;2095916;28;20105;-74
2022/11/07 00:53:01;;;;;;;24.80;8.95;;;;;;;17.30;100.00;100751.66;2085339;28;20037;-74
2022/11/07 00:54:25;;;;;;;12.35;3.05;;;;;;;17.25;100.00;100744.63;2097093;28;20040;-74
2022/11/07 00:55:47;;;;;;;8.07;1.38;;;;;;;17.21;100.00;100749.09;2096105;28;20037;-74
2022/11/07 00:57:09;;;;;;;10.20;2.55;;;;;;;17.18;100.00;100749.16;2092892;28;20068;-74
2022/11/07 00:58:32;;;;;;;19.30;6.45;;;;;;;17.13;100.00;100761.66;2092935;28;20548;-74
2022/11/07 00:59:54;;;;;;;24.83;10.23;;;;;;;17.05;100.00;100758.19;2093446;28;20037;-74
2022/11/07 01:01:18;;;;;;;32.15;12.32;;;;;;;16.96;100.00;100761.84;2093566;28;20147;-73
2022/11/07 01:02:41;;;;;;;20.92;7.35;;;;;;;16.94;100.00;100757.41;2084387;28;20124;-74
2022/11/07 01:05:41;;;;;;;14.82;4.18;;;;;;;16.97;100.00;100760.94;2096197;28;20161;-74
2022/11/07 01:07:05;;;;;;;15.25;4.88;;;;;;;16.99;100.00;100763.59;2097659;28;20546;-75
2022/11/07 01:08:27;;;;;;;12.70;4.00;;;;;;;16.98;100.00;100761.81;2094747;28;20052;-74
2022/11/07 01:09:51;;;;;;;;;;;;;;;16.93;100.00;100764.56;2087125;28;20052;-74
2022/11/07 01:11:12;;;;;;;12.50;4.05;;;;;;;16.90;100.00;100766.34;2092458;28;20342;-74
2022/11/07 01:12:35;;;;;;;13.88;3.92;;;;;;;16.83;100.00;100772.63;2095064;28;20052;-74
2022/11/07 01:13:58;;;;;;;14.13;4.53;;;;;;;16.77;100.00;100767.38;2103287;28;20044;-74
2022/11/07 01:15:20;;;;;;;43.15;14.75;;;;;;;16.72;100.00;100770.97;2089418;28;20053;-73
2022/11/07 01:16:42;;;;;;;10.30;2.40;;;;;;;16.72;100.00;100770.09;2080291;28;20078;-74
2022/11/07 01:18:04;;;;;;;;;;;;;;;16.69;100.00;100770.97;2091687;28;20041;-74
2022/11/07 01:19:27;;;;;;;13.00;2.92;;;;;;;16.71;100.00;100765.66;2093011;28;20334;-73
2022/11/07 01:20:48;;;;;;;14.40;5.32;;;;;;;16.76;100.00;100768.25;2101616;28;20138;-74
2022/11/07 01:22:11;;;;;;;6.93;1.70;;;;;;;16.77;100.00;100775.38;2092095;28;20496;-73
2022/11/07 01:23:35;;;;;;;6.32;1.00;;;;;;;16.74;100.00;100779.81;2100690;28;20086;-73
2022/11/07 01:24:59;;;;;;;4.38;1.00;;;;;;;16.69;100.00;100776.31;2098454;28;20052;-73
2022/11/07 01:26:20;;;;;;;5.30;1.13;;;;;;;16.63;100.00;100776.38;2086603;28;20052;-73
2022/11/07 01:27:43;;;;;;;5.68;1.20;;;;;;;16.59;100.00;100779.06;2100400;28;20642;-73
2022/11/07 01:29:06;;;;;;;5.35;1.30;;;;;;;16.57;100.00;100778.19;2088271;28;20147;-73
2022/11/07 01:30:27;;;;;;;5.70;1.20;;;;;;;16.57;100.00;100775.50;2094753;28;20052;-73
2022/11/07 01:31:49;;;;;;;8.23;2.13;;;;;;;16.58;100.00;100779.94;2094707;28;20143;-73
2022/11/07 01:33:11;;;;;;;9.98;1.83;;;;;;;16.59;100.00;100776.38;2086513;28;20049;-73
2022/11/07 01:34:33;;;;;;;;;;;;;;;16.55;100.00;100775.50;2092419;28;20159;-73
2022/11/07 01:35:59;;;;;;;6.88;1.83;;;;;;;16.56;100.00;100779.97;2102943;28;19927;-74
2022/11/07 01:37:21;;;;;;;5.50;1.70;;;;;;;16.57;100.00;100775.50;2092355;28;20041;-73
2022/11/07 01:38:45;;;;;;;6.90;1.83;;;;;;;16.57;100.00;100780.84;2102444;28;20132;-73
2022/11/07 01:40:10;;;;;;;5.93;1.60;;;;;;;16.57;100.00;100787.06;2089061;28;20053;-73
2022/11/07 01:41:35;;;;;;;20.02;5.88;;;;;;;16.55;100.00;100770.19;2101029;28;20584;-73
2022/11/07 01:42:56;;;;;;;5.45;1.48;;;;;;;16.56;100.00;100777.28;2097678;28;20048;-74
2022/11/07 01:44:54;;;;;;;3.20;0.80;;;;;;;16.61;100.00;100774.59;2088017;28;20059;-73
2022/11/07 01:46:15;;;;;;;3.63;0.80;;;;;;;16.65;100.00;100769.25;2097355;28;20060;-74
2022/11/07 01:47:39;;;;;;;3.40;0.82;;;;;;;16.72;100.00;100778.09;2097473;28;20076;-74
2022/11/07 01:49:10;;;;;;;4.28;0.77;;;;;;;16.78;100.00;100785.13;2102517;28;20044;-73
2022/11/07 01:50:31;;;;;;;3.95;1.02;;;;;;;16.81;100.00;100782.41;2088839;28;20079;-73
2022/11/07 01:51:59;;;;;;;4.22;0.73;;;;;;;16.83;100.00;100781.53;2104048;28;20040;-74
2022/11/07 01:53:20;;;;;;;4.47;1.08;;;;;;;16.85;100.00;100778.84;2097355;28;20201;-74
2022/11/07 01:54:49;;;;;;;8.32;2.15;;;;;;;16.87;100.00;100782.41;2086160;28;20137;-73
2022/11/07 01:56:16;;;;;;;6.80;1.60;;;;;;;16.89;100.00;100783.25;2093534;28;20040;-74
2022/11/07 01:57:42;;;;;;;4.20;0.95;;;;;;;16.89;100.00;100777.91;2103192;28;20603;-74
2022/11/07 01:59:05;;;;;;;4.70;0.98;;;;;;;16.92;100.00;100783.22;2088377;28;20102;-74
2022/11/07 02:00:29;;;;;;;3.97;0.80;;;;;;;16.95;100.00;100785.84;2100518;28;20062;-74
2022/11/07 02:01:52;;;;;;;4.65;0.70;;;;;;;16.97;100.00;100770.72;2094979;28;20099;-74
2022/11/07 02:03:16;;;;;;;2.58;0.80;;;;;;;17.01;100.00;100777.78;2089201;28;20045;-74
2022/11/07 02:04:39;;;;;;;5.60;1.20;;;;;;;17.05;100.00;100782.19;2087752;28;20386;-73
2022/11/07 02:06:05;;;;;;;3.67;1.00;;;;;;;17.07;100.00;100783.94;2094914;28;20046;-74
2022/11/07 02:07:29;;;;;;;3.78;0.75;;;;;;;17.10;100.00;100789.25;2086618;28;20131;-74
2022/11/07 02:08:53;;;;;;;4.25;0.80;;;;;;;17.12;100.00;100789.25;2090113;28;20072;-73
2022/11/07 02:10:16;;;;;;;1.48;0.65;;;;;;;17.15;100.00;100791.84;2086542;28;20059;-73
2022/11/07 02:11:40;;;;;;;6.75;1.30;;;;;;;17.18;100.00;100797.19;2091926;28;20051;-73
2022/11/07 02:13:02;;;;;;;4.22;0.90;;;;;;;17.21;100.00;100790.91;2102150;28;20040;-73
2022/11/07 02:14:25;;;;;;;2.67;0.68;;;;;;;17.23;100.00;100800.66;2088818;28;20143;-73
2022/11/07 02:15:46;;;;;;;9.15;1.05;;;;;;;17.27;100.00;100798.84;2079071;28;20455;-73
2022/11/07 02:17:09;;;;;;;5.82;0.90;;;;;;;17.27;100.00;100794.38;2083409;28;20510;-73
2022/11/07 02:18:36;;;;;;;5.60;0.90;;;;;;;17.30;100.00;100786.34;2083416;28;20033;-73
2022/11/07 02:19:59;;;;;;;3.17;0.90;;;;;;;17.30;100.00;100788.13;2084861;28;20118;-73
2022/11/07 02:21:38;;;;;;;4.22;0.80;;;;;;;17.29;100.00;100783.69;2091708;28;20048;-73
2022/11/07 02:23:07;;;;;;;2.25;0.70;;;;;;;17.27;100.00;100781.03;2088654;28;20044;-73
2022/11/07 02:24:33;;;;;;;3.60;0.63;;;;;;;17.27;100.00;100778.38;2088884;28;20047;-74
2022/11/07 02:25:55;;;;;;;1.25;0.50;;;;;;;17.24;100.00;100785.53;2099043;28;20048;-73
2022/11/07 02:27:21;;;;;;;2.92;0.70;;;;;;;17.24;100.00;100775.75;2095964;28;20056;-74
2022/11/07 02:28:46;;;;;;;3.30;0.65;;;;;;;17.23;100.00;100768.66;2093275;28;20467;-73
2022/11/07 02:30:10;;;;;;;3.60;1.00;;;;;;;17.20;100.00;100767.81;2092271;28;20419;-74
2022/11/07 02:31:33;;;;;;;4.20;1.10;;;;;;;17.16;100.00;100760.72;2100346;28;20052;-73
2022/11/07 02:32:55;;;;;;;1.88;0.65;;;;;;;17.11;100.00;100768.78;2096343;28;20101;-73
2022/11/07 02:34:18;;;;;;;7.30;1.17;;;;;;;17.05;100.00;100763.53;2096960;28;20143;-74
2022/11/07 02:35:41;;;;;;;3.95;0.93;;;;;;;17.02;100.00;100761.75;2093784;28;20066;-73
2022/11/07 02:37:08;;;;;;;5.00;1.27;;;;;;;16.97;100.00;100760.06;2085822;28;20489;-73
2022/11/07 02:38:33;;;;;;;4.38;1.40;;;;;;;16.86;100.00;100756.63;2100480;28;20043;-73
2022/11/07 02:39:58;;;;;;;5.93;2.30;;;;;;;16.72;100.00;100759.44;2098813;28;20047;-72
2022/11/07 02:41:23;;;;;;;6.70;2.10;;;;;;;16.60;100.00;100757.75;2088871;28;20102;-73
2022/11/07 02:42:47;;;;;;;4.90;2.13;;;;;;;16.55;100.00;100756.84;2097282;28;20040;-74
2022/11/07 02:44:11;;;;;;;6.70;1.40;;;;;;;16.55;100.00;100750.66;2092821;28;20048;-73
2022/11/07 02:45:37;;;;;;;5.25;1.10;;;;;;;16.57;100.00;100746.19;2094814;28;20145;-74
2022/11/07 02:47:00;;;;;;;5.88;1.27;;;;;;;16.56;100.00;100747.09;2085979;28;20051;-74
2022/11/07 02:48:28;;;;;;;5.20;1.10;;;;;;;16.54;100.00;100746.25;2091487;28;20678;-74
2022/11/07 02:49:50;;;;;;;4.95;0.98;;;;;;;16.53;100.00;100747.13;2088604;28;20045;-74
2022/11/07 02:51:11;;;;;;;2.80;0.88;;;;;;;16.50;100.00;100747.16;2086042;28;20641;-73
2022/11/07 02:52:34;;;;;;;2.58;0.80;;;;;;;16.46;100.00;100754.28;2084816;28;20069;-73
2022/11/07 02:53:56;;;;;;;4.65;1.05;;;;;;;16.41;100.00;100761.41;2083259;28;20132;-73
2022/11/07 02:55:19;;;;;;;5.70;1.50;;;;;;;16.38;100.00;100766.78;2099977;28;20040;-72
2022/11/07 02:56:42;;;;;;;4.15;1.35;;;;;;;16.33;100.00;100769.50;2088468;28;20064;-72
2022/11/07 02:58:04;;;;;;;8.43;2.72;;;;;;;16.30;100.00;100779.28;2096524;28;20113;-72
2022/11/07 02:59:26;;;;;;;13.27;4.50;;;;;;;16.21;100.00;100782.03;2088534;28;20636;-73
2022/11/07 03:00:48;;;;;;;11.73;5.50;;;;;;;16.13;100.00;100782.09;2084702;28;20106;-73
2022/11/07 03:02:10;;;;;;;8.48;3.03;;;;;;;16.08;100.00;100783.00;2099337;28;20093;-73
2022/11/07 03:03:32;;;;;;;88.18;43.00;;;;;;;16.02;100.00;100786.56;2083379;28;20044;-72
2022/11/07 03:04:55;;;;;;;187.07;82.72;;;;;;;16.02;100.00;100788.34;2099902;28;20055;-74
2022/11/07 03:06:18;;;;;;;33.17;13.55;;;;;;;16.04;100.00;100782.13;2088298;28;20098;-73
2022/11/07 03:07:42;;;;;;;18.38;6.32;;;;;;;16.05;100.00;100786.56;2094415;28;20211;-73
2022/11/07 03:09:04;;;;;;;11.02;4.10;;;;;;;16.07;100.00;100789.22;2084330;28;20095;-73
2022/11/07 03:10:27;;;;;;;17.40;5.38;;;;;;;16.08;100.00;100799.00;2091441;28;20049;-74
2022/11/07 03:11:49;;;;;;;15.57;6.80;;;;;;;16.06;100.00;100798.09;2092916;28;20143;-73
2022/11/07 03:13:11;;;;;;;13.95;5.85;;;;;;;16.06;100.00;100803.44;2094084;28;20059;-73
2022/11/07 03:14:33;;;;;;;9.18;4.30;;;;;;;16.05;100.00;100806.97;2093780;28;20047;-73
2022/11/07 03:15:56;;;;;;;13.15;5.15;;;;;;;16.05;100.00;100802.53;2093864;28;20051;-73
2022/11/07 03:17:18;;;;;;;14.27;7.78;;;;;;;16.07;100.00;100808.75;2096330;28;20401;-73
2022/11/07 03:18:41;;;;;;;14.02;6.70;;;;;;;16.10;100.00;100807.84;2085768;28;20155;-73
2022/11/07 03:20:04;;;;;;;8.77;2.80;;;;;;;16.12;100.00;100809.59;2088522;28;20094;-73
2022/11/07 03:21:26;;;;;;;4.75;1.42;;;;;;;16.15;100.00;100806.00;2094311;28;20068;-73
2022/11/07 03:22:48;;;;;;;4.20;1.50;;;;;;;16.18;100.00;100812.22;2088524;28;20140;-74
2022/11/07 03:24:11;;;;;;;3.75;1.27;;;;;;;16.25;100.00;100818.41;2090053;28;20056;-73
2022/11/07 03:25:33;;;;;;;4.95;1.40;;;;;;;16.32;100.00;100817.47;2098575;28;20052;-74
2022/11/07 03:26:56;;;;;;;7.88;1.75;;;;;;;16.40;100.00;100823.63;2096610;28;20090;-74
2022/11/07 03:28:18;;;;;;;13.68;4.35;;;;;;;16.48;100.00;100816.44;2080112;28;20477;-74
2022/11/07 03:29:40;;;;;;;12.70;4.40;;;;;;;16.51;100.00;100819.09;2091058;28;20052;-73
2022/11/07 03:31:04;;;;;;;6.60;2.08;;;;;;;16.55;100.00;100817.28;2080065;28;20045;-74
2022/11/07 03:32:26;;;;;;;13.10;1.63;;;;;;;16.59;100.00;100819.91;2091909;28;20111;-73
2022/11/07 03:33:48;;;;;;;6.07;1.10;;;;;;;16.61;100.00;100812.81;2088374;28;20067;-73
2022/11/07 03:35:10;;;;;;;2.22;1.10;;;;;;;16.64;100.00;100823.47;2100259;28;20051;-73
2022/11/07 03:36:32;;;;;;;2.20;0.82;;;;;;;16.66;100.00;100820.78;2096255;28;20048;-73
2022/11/07 03:37:54;;;;;;;3.05;0.90;;;;;;;16.68;100.00;100821.63;2102492;28;20044;-73
2022/11/07 03:39:16;;;;;;;5.20;1.33;;;;;;;16.67;100.00;100851.88;2094054;28;20041;-74
2022/11/07 03:40:40;;;;;;;7.47;1.45;;;;;;;16.65;100.00;100837.69;2093641;28;20475;-73
2022/11/07 03:42:03;;;;;;;9.20;1.75;;;;;;;16.66;100.00;100843.00;2102657;28;20044;-73
2022/11/07 03:43:25;;;;;;;8.75;2.90;;;;;;;16.72;100.00;100844.72;2102682;28;20043;-73
2022/11/07 03:44:46;;;;;;;8.02;2.92;;;;;;;16.79;100.00;100853.56;2093906;28;20049;-73
2022/11/07 03:46:09;;;;;;;6.97;1.88;;;;;;;16.83;100.00;100856.19;2099743;28;20147;-74
2022/11/07 03:47:33;;;;;;;7.93;1.50;;;;;;;16.90;100.00;100855.22;2102138;28;20128;-73
2022/11/07 03:48:55;;;;;;;6.15;1.55;;;;;;;16.96;100.00;100865.84;2097269;28;20052;-73
2022/11/07 03:50:20;;;;;;;10.90;2.70;;;;;;;16.99;100.00;100862.28;2088138;28;20618;-74
2022/11/07 03:51:43;;;;;;;6.75;1.85;;;;;;;16.99;100.00;100868.50;2092039;28;20068;-73
2022/11/07 03:53:06;;;;;;;11.60;1.85;;;;;;;16.89;100.00;100880.13;2101939;28;20444;-71
2022/11/07 03:54:27;;;;;;;9.18;1.90;;;;;;;16.73;100.00;100884.72;2097925;28;20508;-72
2022/11/07 03:55:54;;;;;;;11.80;2.30;;;;;;;16.57;100.00;100896.34;2087601;28;20243;-73
2022/11/07 03:57:15;;;;;;;15.93;2.85;;;;;;;16.41;100.00;100902.66;2100030;28;20052;-73
2022/11/07 03:58:38;;;;;;;10.07;2.63;;;;;;;16.25;100.00;100915.19;2088409;28;20540;-73
2022/11/07 03:59:59;;;;;;;12.77;3.00;;;;;;;16.18;100.00;100917.88;2085353;28;20556;-73
2022/11/07 04:01:22;;;;;;;11.25;2.80;;;;;;;16.18;100.00;100923.22;2082355;28;20045;-73
2022/11/07 04:02:44;;;;;;;10.02;2.50;;;;;;;16.23;100.00;100929.41;2090893;28;20048;-73
2022/11/07 04:04:06;;;;;;;10.35;3.42;;;;;;;16.26;100.00;100924.94;2093217;28;20104;-73
2022/11/07 04:05:28;;;;;;;10.05;3.00;;;;;;;16.29;100.00;100930.25;2096458;28;20048;-73
2022/11/07 04:06:50;;;;;;;10.70;2.47;;;;;;;16.30;100.00;100934.69;2102308;28;20097;-73
2022/11/07 04:08:13;;;;;;;14.25;2.72;;;;;;;16.28;100.00;100935.56;2093579;28;20645;-73
2022/11/07 04:09:34;;;;;;;13.98;3.10;;;;;;;16.26;100.00;100932.06;2085189;28;20070;-73
2022/11/07 04:10:58;;;;;;;14.88;3.78;;;;;;;16.23;100.00;100943.59;2090624;28;20139;-73
2022/11/07 04:17:20;;;;;;;13.15;3.53;;;;;;;16.18;100.00;100939.19;2089835;28;20583;-73
2022/11/07 04:18:42;;;;;;;15.68;4.65;;;;;;;16.19;100.00;100940.97;2092725;28;20543;-73
2022/11/07 04:20:06;;;;;;;12.55;4.97;;;;;;;16.21;100.00;100939.19;2096454;28;20040;-74
2022/11/07 04:21:28;;;;;;;11.82;3.15;;;;;;;16.23;100.00;100940.06;2085546;28;20041;-74
2022/11/07 04:22:49;;;;;;;10.95;3.20;;;;;;;16.23;100.00;100940.06;2097602;28;20514;-74
2022/11/07 04:24:12;;;;;;;10.77;2.60;;;;;;;16.20;100.00;100938.31;2108274;28;20483;-74
2022/11/07 04:29:02;;;;;;;9.40;2.10;;;;;;;16.06;100.00;100941.91;2077097;28;20083;-74
2022/11/07 04:30:26;;;;;;;10.15;2.22;;;;;;;16.04;100.00;100935.69;2088113;28;20095;-75
2022/11/07 04:31:48;;;;;;;10.20;2.13;;;;;;;16.00;100.00;100937.50;2093093;28;20139;-75
2022/11/07 04:33:10;;;;;;;11.90;2.95;;;;;;;15.95;100.00;100934.84;2101703;28;20041;-75
2022/11/07 04:34:33;;;;;;;8.27;1.90;;;;;;;15.92;100.00;100942.84;2097422;28;20378;-75
2022/11/07 04:35:55;;;;;;;10.50;2.33;;;;;;;15.90;100.00;100947.28;2088033;28;20684;-75
2022/11/07 04:37:18;;;;;;;7.55;1.88;;;;;;;15.87;100.00;100946.41;2090945;28;20155;-75
2022/11/07 04:38:40;;;;;;;8.15;2.22;;;;;;;15.86;100.00;100949.97;2085180;28;20062;-74
2022/11/07 04:40:02;;;;;;;13.13;2.45;;;;;;;15.87;100.00;100952.63;2080956;28;20056;-74
2022/11/07 04:41:25;;;;;;;11.98;2.13;;;;;;;15.90;100.00;100947.28;2099440;28;20043;-74
2022/11/07 04:42:49;;;;;;;11.18;2.88;;;;;;;15.94;100.00;100951.72;2088409;28;20144;-75
2022/11/07 04:44:12;;;;;;;12.48;2.50;;;;;;;15.94;100.00;100949.06;2084215;28;20044;-76
2022/11/07 04:45:35;;;;;;;10.93;2.05;;;;;;;15.94;100.00;100948.19;2095779;28;20044;-75
2022/11/07 04:46:56;;;;;;;11.40;2.78;;;;;;;15.93;100.00;100946.41;2097467;28;20049;-76
2022/11/07 04:48:19;;;;;;;8.27;2.35;;;;;;;15.93;100.00;100949.94;2086650;28;20100;-75
2022/11/07 04:49:41;;;;;;;7.97;2.30;;;;;;;15.93;100.00;100947.28;2092498;28;20131;-75
2022/11/07 04:51:04;;;;;;;13.48;2.30;;;;;;;15.92;100.00;100948.19;2099064;28;20052;-76
2022/11/07 04:52:25;;;;;;;14.50;2.53;;;;;;;15.93;100.00;100946.41;2089522;28;20738;-75
2022/11/07 04:53:47;;;;;;;14.77;2.70;;;;;;;15.95;100.00;100942.81;2094873;28;20047;-75
2022/11/07 04:55:17;;;;;;;10.00;2.30;;;;;;;15.98;100.00;100941.03;2086607;28;20052;-75
2022/11/07 04:56:40;;;;;;;7.93;2.25;;;;;;;15.97;100.00;100936.59;2103120;28;20059;-75
2022/11/07 04:58:04;;;;;;;8.80;2.55;;;;;;;15.98;100.00;100943.72;2090116;28;20041;-75
2022/11/07 04:59:27;;;;;;;9.73;2.00;;;;;;;15.96;100.00;100943.72;2101281;28;20046;-75
2022/11/07 05:00:49;;;;;;;8.15;2.13;;;;;;;15.97;100.00;100941.94;2087757;28;20095;-75
2022/11/07 05:02:11;;;;;;;12.52;2.60;;;;;;;15.99;100.00;100938.38;2095087;28;20101;-75
2022/11/07 05:03:34;;;;;;;9.38;1.90;;;;;;;16.04;100.00;100939.25;2098915;28;20059;-75
2022/11/07 05:04:56;;;;;;;7.43;2.05;;;;;;;16.06;100.00;100941.91;2103515;28;20040;-75
2022/11/07 05:06:19;;;;;;;11.73;2.33;;;;;;;16.05;100.00;100937.47;2097752;28;20044;-76
2022/11/07 05:07:41;;;;;;;7.45;1.90;;;;;;;16.05;100.00;100940.13;2109088;28;20044;-76
2022/11/07 05:09:03;;;;;;;7.75;2.20;;;;;;;16.05;100.00;100942.81;2095800;28;20037;-75
2022/11/07 05:10:27;;;;;;;10.48;2.10;;;;;;;16.06;100.00;100939.25;2099536;28;20531;-75
2022/11/07 05:11:48;;;;;;;6.63;2.13;;;;;;;16.04;100.00;100944.56;2102845;28;20036;-75
2022/11/07 05:13:12;;;;;;;10.65;1.80;;;;;;;16.01;100.00;100943.72;2103097;28;20044;-75
2022/11/07 05:14:34;;;;;;;9.50;2.38;;;;;;;15.99;100.00;100938.38;2086067;28;20049;-75
2022/11/07 05:15:57;;;;;;;;;;;;;;;15.94;100.00;100934.88;2095560;28;20049;-75
2022/11/07 05:17:19;;;;;;;9.63;2.00;;;;;;;15.95;100.00;100940.16;2095046;28;20364;-75
2022/11/07 05:18:41;;;;;;;11.93;1.95;;;;;;;15.97;100.00;100939.28;2094240;28;20044;-75
2022/11/07 05:20:04;;;;;;;7.63;1.80;;;;;;;16.01;100.00;100943.72;2094512;28;20175;-74
2022/11/07 05:21:27;;;;;;;7.85;2.00;;;;;;;16.03;100.00;100941.91;2102972;28;20048;-75
2022/11/07 05:24:29;;;;;;;15.15;5.00;;;;;;;15.98;100.00;100941.94;2103896;28;20055;-75
2022/11/07 05:25:52;;;;;;;14.23;4.05;;;;;;;16.00;100.00;100947.25;2097293;28;20144;-74
2022/11/07 05:27:19;;;;;;;14.25;3.38;;;;;;;16.04;100.00;100951.69;2097445;28;20152;-74
2022/11/07 05:28:43;;;;;;;9.18;2.70;;;;;;;16.07;100.00;100951.69;2085880;28;20044;-75
2022/11/07 05:30:06;;;;;;;10.35;3.10;;;;;;;16.11;100.00;100953.44;2091361;28;20481;-74
2022/11/07 05:31:29;;;;;;;9.27;2.30;;;;;;;16.14;100.00;100958.75;2094747;28;20063;-75
2022/11/07 05:32:51;;;;;;;4.22;1.80;;;;;;;16.16;100.00;100948.97;2085456;28;20049;-75
2022/11/07 05:34:13;;;;;;;6.97;1.60;;;;;;;16.15;100.00;100952.50;2086681;28;20099;-75
2022/11/07 05:35:35;;;;;;;15.55;5.95;;;;;;;16.13;100.00;100949.00;2086182;28;20107;-74
2022/11/07 05:36:56;;;;;;;22.48;8.68;;;;;;;16.11;100.00;100958.75;2086822;28;20045;-74
2022/11/07 05:38:19;;;;;;;4.88;2.05;;;;;;;16.11;100.00;100961.41;2094568;28;20052;-75
2022/11/07 05:39:40;;;;;;;4.43;1.73;;;;;;;16.13;100.00;100959.66;2081878;28;20052;-74
2022/11/07 05:41:03;;;;;;;6.55;1.80;;;;;;;16.13;100.00;100964.97;2094231;28;20477;-74
2022/11/07 05:42:24;;;;;;;2.65;1.52;;;;;;;16.14;100.00;100964.09;2084725;28;20492;-74
2022/11/07 05:43:49;;;;;;;8.43;1.75;;;;;;;16.12;100.00;100966.75;2088255;28;20078;-74
2022/11/07 05:45:10;;;;;;;5.95;1.58;;;;;;;16.15;100.00;100973.81;2095139;28;20096;-74
2022/11/07 05:46:33;;;;;;;5.97;1.80;;;;;;;16.16;100.00;100975.59;2094816;28;20427;-73
2022/11/07 05:47:59;;;;;;;4.28;1.85;;;;;;;16.18;100.00;100982.69;2094900;28;20063;-74
2022/11/07 05:49:20;;;;;;;6.35;2.50;;;;;;;16.19;100.00;100984.47;2093586;28;20571;-74
2022/11/07 05:50:42;;;;;;;4.18;1.67;;;;;;;16.22;100.00;100981.78;2088549;28;20453;-74
2022/11/07 05:52:05;;;;;;;6.05;1.83;;;;;;;16.26;100.00;100991.56;2092273;28;20048;-74
2022/11/07 05:53:28;;;;;;;5.30;1.45;;;;;;;16.31;100.00;100987.09;2097842;28;20457;-74
2022/11/07 05:54:50;;;;;;;3.22;1.80;;;;;;;16.34;100.00;100986.19;2083641;28;20049;-74
2022/11/07 05:56:13;;;;;;;4.95;1.65;;;;;;;16.38;100.00;100987.94;2088803;28;20119;-74
2022/11/07 05:57:36;;;;;;;4.05;1.65;;;;;;;16.42;100.00;100984.34;2089191;28;20102;-74
2022/11/07 05:59:00;;;;;;;6.00;2.08;;;;;;;16.46;100.00;100988.81;2080911;28;20079;-74
2022/11/07 06:00:23;;;;;;;4.65;1.95;;;;;;;16.46;100.00;100991.47;2080111;28;20087;-74
2022/11/07 06:01:45;;;;;;;7.03;1.80;;;;;;;16.49;100.00;100987.88;2079976;28;20033;-74
2022/11/07 06:03:08;;;;;;;3.40;1.95;;;;;;;16.51;100.00;100988.78;2098805;28;20047;-74
2022/11/07 06:04:31;;;;;;;3.72;1.80;;;;;;;16.53;100.00;100982.56;2091589;28;20053;-74
2022/11/07 06:05:53;;;;;;;3.33;1.70;;;;;;;16.57;100.00;100989.63;2089120;28;20115;-73
2022/11/07 06:07:15;;;;;;;6.60;1.77;;;;;;;16.60;100.00;100988.78;2084460;28;20045;-73
2022/11/07 06:08:38;;;;;;;3.30;1.67;;;;;;;16.61;100.00;100990.50;2101333;28;20059;-74
2022/11/07 06:10:00;;;;;;;6.13;1.50;;;;;;;16.63;100.00;100992.28;2094360;28;20044;-74
2022/11/07 06:11:22;;;;;;;4.18;1.50;;;;;;;16.66;100.00;100994.06;2092881;28;20044;-74
2022/11/07 06:12:45;;;;;;;5.18;1.50;;;;;;;16.67;100.00;100998.50;2086589;28;20045;-74
2022/11/07 06:14:09;;;;;;;4.85;1.60;;;;;;;16.70;100.00;100999.38;2092116;28;20045;-74
2022/11/07 06:15:33;;;;;;;4.22;1.73;;;;;;;16.76;100.00;100994.88;2100576;28;20040;-74
2022/11/07 06:16:56;;;;;;;4.60;1.98;;;;;;;16.82;100.00;101000.16;2097428;28;20087;-74
2022/11/07 06:18:20;;;;;;;3.28;1.60;;;;;;;16.89;100.00;100993.91;2100901;28;20040;-75
2022/11/07 06:19:43;;;;;;;6.53;1.48;;;;;;;16.99;100.00;100998.31;2088985;28;20513;-74
2022/11/07 06:21:04;;;;;;;3.33;1.33;;;;;;;17.10;100.00;101002.66;2099798;28;20127;-74
2022/11/07 06:22:27;;;;;;;4.53;1.65;;;;;;;17.23;100.00;101005.22;2102621;28;20127;-74
2022/11/07 06:23:49;;;;;;;4.68;2.00;;;;;;;17.44;100.00;101013.97;2086856;28;20090;-74
2022/11/07 06:25:12;;;;;;;3.90;2.10;;;;;;;17.73;100.00;101010.16;2099372;28;20044;-74
2022/11/07 06:26:34;;;;;;;5.55;1.40;;;;;;;18.02;100.00;101017.88;2083599;28;20106;-74
2022/11/07 06:27:59;;;;;;;4.70;1.25;;;;;;;18.29;100.00;101022.91;2085963;28;20049;-74
2022/11/07 06:29:23;;;;;;;4.85;1.30;;;;;;;18.58;100.00;101026.13;2102436;28;20508;-74
2022/11/07 06:30:45;;;;;;;3.22;1.50;;;;;;;18.86;100.00;101039.13;2093231;28;20044;-74
2022/11/07 06:32:08;;;;;;;1.98;1.00;;;;;;;19.08;100.00;101046.84;2089109;28;20057;-74
2022/11/07 06:33:31;;;;;;;1.77;1.15;;;;;;;19.22;100.00;101043.09;2086649;28;20059;-74